createdAt,value
2023-04-22T00:00:09.139Z,4.40
2023-04-22T00:02:37.451Z,4.32
2023-04-22T00:05:06.298Z,4.18
2023-04-22T00:07:33.663Z,4.65
2023-04-22T00:10:00.644Z,4.20
2023-04-22T00:12:28.802Z,4.57
2023-04-22T00:14:55.615Z,4.20
2023-04-22T00:17:22.422Z,3.92
2023-04-22T00:19:49.922Z,4.18
2023-04-22T00:22:16.783Z,4.65
2023-04-22T00:24:44.977Z,4.35
2023-04-22T00:27:14.468Z,4.20
2023-04-22T00:29:41.734Z,4.65
2023-04-22T00:32:08.492Z,4.07
2023-04-22T00:34:35.329Z,4.38
2023-04-22T00:37:02.476Z,4.65
2023-04-22T00:39:30.550Z,4.63
2023-04-22T00:41:57.602Z,4.43
2023-04-22T00:44:25.504Z,4.50
2023-04-22T00:46:52.465Z,4.85
2023-04-22T00:49:20.427Z,4.72
2023-04-22T00:51:47.335Z,4.50
2023-04-22T00:54:14.012Z,4.95
2023-04-22T00:56:40.857Z,4.38
2023-04-22T00:59:09.457Z,4.35
2023-04-22T01:01:36.525Z,4.90
2023-04-22T01:04:04.473Z,4.68
2023-04-22T01:06:33.976Z,4.55
2023-04-22T01:09:00.679Z,4.70
2023-04-22T01:11:27.424Z,4.00
2023-04-22T01:13:54.190Z,4.45
2023-04-22T01:16:22.153Z,4.90
2023-04-22T01:18:49.207Z,4.53
2023-04-22T01:21:17.600Z,5.50
2023-04-22T01:23:44.430Z,5.15
2023-04-22T01:26:11.482Z,4.70
2023-04-22T01:28:38.594Z,5.35
2023-04-22T01:31:05.580Z,5.90
2023-04-22T01:33:32.405Z,5.15
2023-04-22T01:36:00.281Z,4.45
2023-04-22T01:38:27.168Z,5.15
2023-04-22T01:40:54.052Z,4.75
2023-04-22T01:43:20.819Z,4.68
2023-04-22T01:45:47.573Z,4.90
2023-04-22T01:48:14.297Z,4.57
2023-04-22T01:50:41.215Z,4.93
2023-04-22T01:53:08.742Z,4.63
2023-04-22T01:55:36.262Z,4.30
2023-04-22T01:58:04.061Z,4.57
2023-04-22T02:00:31.178Z,4.57
2023-04-22T02:02:58.024Z,4.60
2023-04-22T02:05:24.865Z,4.55
2023-04-22T02:07:54.676Z,4.80
2023-04-22T02:10:21.539Z,4.50
2023-04-22T02:12:48.245Z,4.85
2023-04-22T02:15:14.962Z,4.03
2023-04-22T02:17:43.433Z,4.70
2023-04-22T02:20:11.519Z,4.45
2023-04-22T02:22:41.459Z,4.53
2023-04-22T02:25:09.160Z,4.50
2023-04-22T02:27:35.773Z,3.72
2023-04-22T02:30:02.857Z,3.85
2023-04-22T02:32:29.769Z,4.35
2023-04-22T02:34:56.482Z,4.45
2023-04-22T02:37:23.198Z,4.20
2023-04-22T02:39:50.260Z,4.25
2023-04-22T02:42:16.932Z,4.55
2023-04-22T02:44:43.660Z,4.38
2023-04-22T02:47:10.449Z,4.75
2023-04-22T02:49:37.420Z,4.70
2023-04-22T02:52:05.110Z,4.88
2023-04-22T02:54:31.941Z,4.97
2023-04-22T02:56:58.811Z,5.47
2023-04-22T02:59:25.419Z,5.70
2023-04-22T03:01:52.175Z,5.05
2023-04-22T03:04:22.077Z,6.00
2023-04-22T03:06:49.835Z,5.10
2023-04-22T03:09:17.312Z,5.07
2023-04-22T03:11:44.301Z,5.72
2023-04-22T03:14:10.998Z,5.05
2023-04-22T03:16:37.805Z,5.10
2023-04-22T03:19:04.784Z,5.22
2023-04-22T03:21:32.421Z,5.30
2023-04-22T03:23:59.582Z,5.93
2023-04-22T03:26:26.276Z,6.75
2023-04-22T03:28:53.009Z,12.27
2023-04-22T03:31:19.752Z,17.08
2023-04-22T03:33:46.523Z,19.40
2023-04-22T03:36:13.305Z,24.48
2023-04-22T03:38:40.001Z,17.77
2023-04-22T03:41:06.774Z,8.85
2023-04-22T03:43:33.427Z,5.78
2023-04-22T03:46:00.413Z,6.47
2023-04-22T03:48:29.032Z,5.72
2023-04-22T03:50:55.891Z,6.22
2023-04-22T03:53:22.584Z,5.47
2023-04-22T03:55:49.324Z,6.25
2023-04-22T03:58:15.978Z,5.70
2023-04-22T04:00:42.976Z,6.53
2023-04-22T04:03:09.899Z,5.60
2023-04-22T04:05:37.273Z,4.97
2023-04-22T04:08:06.434Z,4.85
2023-04-22T04:10:33.181Z,5.60
2023-04-22T04:13:00.068Z,4.93
2023-04-22T04:15:27.508Z,5.38
2023-04-22T04:17:56.123Z,5.40
2023-04-22T04:20:23.092Z,5.43
2023-04-22T04:22:49.703Z,4.80
2023-04-22T04:25:18.440Z,4.97
2023-04-22T04:27:45.530Z,5.60
2023-04-22T04:30:13.022Z,4.70
2023-04-22T04:32:40.600Z,4.85
2023-04-22T04:35:07.926Z,5.32
2023-04-22T04:37:34.614Z,5.72
2023-04-22T04:40:01.691Z,5.28
2023-04-22T04:42:30.459Z,5.70
2023-04-22T04:44:58.408Z,5.15
2023-04-22T04:47:25.287Z,5.15
2023-04-22T04:49:54.349Z,5.10
2023-04-22T04:52:21.011Z,5.53
2023-04-22T04:54:48.056Z,5.28
2023-04-22T04:57:14.687Z,5.68
2023-04-22T04:59:41.767Z,5.50
2023-04-22T05:02:08.868Z,5.78
2023-04-22T05:04:35.854Z,6.60
2023-04-22T05:07:02.750Z,6.00
2023-04-22T05:09:29.502Z,5.65
2023-04-22T05:11:56.118Z,5.22
2023-04-22T05:14:22.853Z,5.78
2023-04-22T05:16:49.720Z,5.50
2023-04-22T05:19:16.438Z,4.97
2023-04-22T05:21:43.063Z,5.30
2023-04-22T05:24:09.826Z,4.93
2023-04-22T05:26:36.559Z,5.25
2023-04-22T05:29:03.407Z,5.93
2023-04-22T05:31:30.190Z,5.95
2023-04-22T05:33:56.874Z,5.65
2023-04-22T05:36:23.588Z,6.50
2023-04-22T05:38:50.227Z,5.57
2023-04-22T05:41:16.985Z,6.38
2023-04-22T05:43:43.676Z,5.75
2023-04-22T05:46:10.479Z,4.60
2023-04-22T05:48:37.365Z,5.53
2023-04-22T05:51:04.561Z,5.50
2023-04-22T05:53:31.375Z,5.50
2023-04-22T05:55:58.146Z,5.75
2023-04-22T05:58:24.896Z,5.00
2023-04-22T06:00:51.611Z,5.50
2023-04-22T06:03:18.403Z,5.28
2023-04-22T06:05:45.381Z,5.07
2023-04-22T06:08:12.266Z,4.90
2023-04-22T06:10:39.228Z,4.80
2023-04-22T06:13:09.466Z,4.65
2023-04-22T06:15:36.343Z,4.50
2023-04-22T06:18:03.338Z,4.32
2023-04-22T06:20:32.693Z,4.40
2023-04-22T06:22:59.388Z,4.22
2023-04-22T06:25:26.129Z,4.13
2023-04-22T06:27:52.875Z,4.47
2023-04-22T06:30:19.624Z,4.10
2023-04-22T06:32:46.277Z,4.93
2023-04-22T06:35:13.028Z,4.10
2023-04-22T06:37:40.165Z,3.60
2023-04-22T06:40:07.569Z,3.45
2023-04-22T06:42:34.544Z,3.40
2023-04-22T06:45:01.248Z,3.55
2023-04-22T06:47:28.193Z,3.58
2023-04-22T06:49:54.882Z,3.90
2023-04-22T06:52:23.907Z,3.80
2023-04-22T06:54:51.187Z,4.13
2023-04-22T06:57:17.898Z,4.35
2023-04-22T06:59:46.685Z,4.50
2023-04-22T07:02:13.871Z,4.50
2023-04-22T07:04:40.886Z,4.97
2023-04-22T07:07:07.797Z,4.28
2023-04-22T07:09:36.066Z,4.32
2023-04-22T07:12:02.804Z,4.78
2023-04-22T07:14:33.050Z,5.03
2023-04-22T07:17:00.690Z,5.05
2023-04-22T07:19:27.321Z,4.93
2023-04-22T07:21:54.545Z,5.35
2023-04-22T07:24:21.354Z,5.20
2023-04-22T07:26:48.005Z,4.93
2023-04-22T07:29:14.733Z,5.63
2023-04-22T07:31:41.483Z,5.50
2023-04-22T07:34:10.534Z,5.13
2023-04-22T07:36:37.895Z,5.20
2023-04-22T07:39:04.633Z,5.50
2023-04-22T07:41:31.787Z,5.85
2023-04-22T07:43:58.540Z,5.28
2023-04-22T07:46:25.575Z,5.15
2023-04-22T07:48:52.619Z,5.32
2023-04-22T07:51:19.335Z,5.63
2023-04-22T07:53:46.565Z,4.82
2023-04-22T07:56:13.719Z,5.10
2023-04-22T07:58:40.667Z,5.07
2023-04-22T08:01:07.496Z,5.15
2023-04-22T08:03:34.447Z,4.97
2023-04-22T08:06:01.367Z,4.60
2023-04-22T08:08:28.701Z,4.65
2023-04-22T08:10:55.423Z,4.97
2023-04-22T08:13:22.145Z,4.47
2023-04-22T08:15:49.008Z,4.60
2023-04-22T08:18:15.868Z,3.95
2023-04-22T08:20:42.641Z,4.95
2023-04-22T08:23:10.686Z,4.30
2023-04-22T08:25:37.383Z,4.20
2023-04-22T08:28:04.135Z,4.40
2023-04-22T08:30:31.456Z,4.85
2023-04-22T08:32:58.261Z,4.60
2023-04-22T08:35:25.094Z,4.15
2023-04-22T08:37:55.357Z,3.95
2023-04-22T08:40:22.335Z,4.13
2023-04-22T08:42:51.987Z,4.53
2023-04-22T08:45:18.722Z,4.32
2023-04-22T08:47:46.029Z,4.10
2023-04-22T08:50:13.174Z,3.95
2023-04-22T08:52:41.675Z,3.58
2023-04-22T08:55:08.787Z,3.70
2023-04-22T08:57:38.310Z,3.63
2023-04-22T09:00:06.287Z,3.22
2023-04-22T09:02:33.557Z,3.28
2023-04-22T09:05:02.309Z,2.97
2023-04-22T09:07:31.269Z,2.90
2023-04-22T09:10:01.139Z,2.95
2023-04-22T09:12:28.493Z,2.95
2023-04-22T09:14:55.996Z,3.13
2023-04-22T09:17:33.764Z,2.75
2023-04-22T09:20:02.202Z,2.85
2023-04-22T09:22:37.066Z,2.90
2023-04-22T09:25:15.195Z,3.40
2023-04-22T09:27:41.919Z,2.78
2023-04-22T09:30:10.196Z,3.00
2023-04-22T09:32:37.038Z,3.30
2023-04-22T09:35:04.080Z,3.05
2023-04-22T09:37:39.240Z,2.25
2023-04-22T09:40:18.243Z,2.50
2023-04-22T09:42:51.052Z,2.58
2023-04-22T09:45:32.038Z,2.80
2023-04-22T09:48:04.404Z,2.15
2023-04-22T09:50:31.262Z,2.63
2023-04-22T09:53:04.241Z,2.60
2023-04-22T09:55:34.025Z,2.60
2023-04-22T09:58:07.138Z,2.20
2023-04-22T10:00:40.875Z,2.28
2023-04-22T10:03:10.547Z,2.22
2023-04-22T10:05:38.174Z,2.20
2023-04-22T10:08:07.077Z,2.40
2023-04-22T10:10:34.954Z,2.13
2023-04-22T10:13:04.262Z,2.20
2023-04-22T10:15:38.236Z,2.63
2023-04-22T10:18:08.410Z,1.98
2023-04-22T10:20:40.635Z,2.10
2023-04-22T10:23:14.340Z,2.25
2023-04-22T10:25:41.749Z,2.10
2023-04-22T10:28:10.903Z,1.80
2023-04-22T10:30:39.521Z,2.33
2023-04-22T10:33:21.758Z,2.00
2023-04-22T10:36:09.737Z,1.90
2023-04-22T10:38:54.728Z,1.60
2023-04-22T10:41:25.890Z,1.60
2023-04-22T10:43:58.624Z,1.40
2023-04-22T10:46:37.859Z,1.45
2023-04-22T10:49:12.789Z,1.90
2023-04-22T10:51:47.833Z,1.50
2023-04-22T10:54:30.290Z,1.60
2023-04-22T10:57:19.375Z,2.20
2023-04-22T10:59:54.332Z,1.83
2023-04-22T11:02:22.772Z,1.80
2023-04-22T11:04:50.402Z,2.00
2023-04-22T11:07:20.753Z,1.70
2023-04-22T11:10:04.193Z,1.90
2023-04-22T11:12:39.805Z,1.60
2023-04-22T11:15:11.366Z,1.60
2023-04-22T11:17:40.120Z,1.90
2023-04-22T11:20:08.041Z,1.90
2023-04-22T11:22:40.884Z,1.85
2023-04-22T11:25:10.031Z,1.98
2023-04-22T11:27:41.007Z,1.58
2023-04-22T11:30:09.104Z,1.70
2023-04-22T11:32:40.752Z,1.70
2023-04-22T11:35:13.271Z,1.60
2023-04-22T11:37:52.079Z,1.40
2023-04-22T11:40:30.814Z,1.70
2023-04-22T11:43:00.920Z,1.85
2023-04-22T11:45:29.483Z,1.60
2023-04-22T11:47:56.495Z,1.90
2023-04-22T11:50:26.739Z,1.60
2023-04-22T11:53:02.340Z,1.70
2023-04-22T11:55:31.582Z,1.40
2023-04-22T11:58:07.163Z,1.83
2023-04-22T12:00:40.571Z,1.70
2023-04-22T12:03:15.263Z,1.30
2023-04-22T12:05:43.449Z,1.52
2023-04-22T12:08:21.655Z,1.92
2023-04-22T12:10:53.605Z,1.73
2023-04-22T12:13:26.304Z,2.00
2023-04-22T12:16:02.933Z,1.92
2023-04-22T12:18:39.573Z,2.00
2023-04-22T12:21:11.046Z,1.83
2023-04-22T12:23:45.712Z,1.70
2023-04-22T12:26:13.691Z,1.92
2023-04-22T12:28:41.617Z,1.60
2023-04-22T12:31:09.168Z,1.75
2023-04-22T12:33:37.319Z,2.00
2023-04-22T12:36:04.746Z,1.75
2023-04-22T12:38:31.558Z,1.92
2023-04-22T12:40:58.688Z,1.50
2023-04-22T12:43:25.833Z,1.88
2023-04-22T12:45:52.546Z,1.70
2023-04-22T12:48:19.243Z,1.88
2023-04-22T12:50:46.078Z,1.50
2023-04-22T12:53:12.980Z,1.85
2023-04-22T12:55:39.951Z,1.75
2023-04-22T12:58:06.760Z,1.58
2023-04-22T13:00:33.517Z,1.30
2023-04-22T13:03:00.783Z,1.48
2023-04-22T13:05:27.669Z,1.88
2023-04-22T13:10:24.319Z,1.35
2023-04-22T13:12:51.057Z,1.70
2023-04-22T13:15:19.320Z,1.10
2023-04-22T13:17:50.965Z,1.40
2023-04-22T13:20:18.674Z,1.30
2023-04-22T13:22:47.194Z,1.60
2023-04-22T13:25:14.081Z,1.50
2023-04-22T13:27:40.816Z,1.75
2023-04-22T13:30:08.457Z,1.35
2023-04-22T13:32:35.478Z,1.65
2023-04-22T13:35:03.196Z,2.00
2023-04-22T13:37:29.982Z,1.80
2023-04-22T13:39:56.652Z,1.55
2023-04-22T13:42:23.414Z,1.38
2023-04-22T13:44:50.053Z,1.52
2023-04-22T13:47:17.260Z,1.67
2023-04-22T13:49:43.920Z,1.63
2023-04-22T13:52:10.619Z,2.13
2023-04-22T13:54:37.343Z,1.48
2023-04-22T13:57:04.288Z,1.77
2023-04-22T13:59:31.365Z,1.63
2023-04-22T14:01:58.094Z,1.70
2023-04-22T14:04:24.893Z,1.35
2023-04-22T14:06:51.717Z,1.45
2023-04-22T14:09:18.449Z,1.65
2023-04-22T14:11:45.208Z,1.92
2023-04-22T14:14:12.101Z,1.83
2023-04-22T14:16:38.889Z,1.85
2023-04-22T14:19:06.169Z,1.83
2023-04-22T14:21:32.961Z,1.77
2023-04-22T14:23:59.623Z,1.90
2023-04-22T14:26:26.640Z,1.48
2023-04-22T14:28:53.345Z,1.73
2023-04-22T14:31:20.193Z,1.33
2023-04-22T14:33:47.032Z,1.80
2023-04-22T14:36:13.802Z,1.42
2023-04-22T14:38:40.673Z,1.60
2023-04-22T14:41:07.422Z,1.55
2023-04-22T14:43:34.296Z,1.80
2023-04-22T14:46:01.789Z,1.73
2023-04-22T14:48:30.916Z,1.80
2023-04-22T14:50:59.882Z,1.75
2023-04-22T14:53:26.706Z,1.52
2023-04-22T14:55:53.598Z,1.55
2023-04-22T14:58:20.483Z,1.90
2023-04-22T15:00:48.929Z,1.63
2023-04-22T15:03:16.218Z,1.40
2023-04-22T15:05:43.684Z,1.30
2023-04-22T15:08:10.540Z,1.38
2023-04-22T15:10:37.314Z,1.60
2023-04-22T15:13:04.212Z,1.50
2023-04-22T15:15:30.933Z,1.80
2023-04-22T15:17:57.779Z,1.77
2023-04-22T15:20:24.594Z,1.20
2023-04-22T15:22:52.022Z,1.35
2023-04-22T15:25:18.768Z,1.80
2023-04-22T15:27:46.086Z,1.40
2023-04-22T15:30:12.962Z,1.40
2023-04-22T15:32:39.637Z,1.67
2023-04-22T15:35:08.230Z,1.65
2023-04-22T15:37:35.030Z,1.67
2023-04-22T15:40:02.029Z,1.42
2023-04-22T15:42:28.769Z,1.40
2023-04-22T15:44:55.792Z,1.40
2023-04-22T15:47:23.422Z,1.80
2023-04-22T15:49:50.509Z,1.52
2023-04-22T15:52:19.363Z,1.48
2023-04-22T15:54:46.691Z,1.60
2023-04-22T15:57:13.362Z,1.30
2023-04-22T15:59:40.385Z,1.08
2023-04-22T16:02:08.770Z,1.35
2023-04-22T16:04:36.218Z,1.30
2023-04-22T16:07:03.394Z,1.52
2023-04-22T16:09:30.133Z,1.75
2023-04-22T16:11:56.979Z,1.90
2023-04-22T16:14:23.623Z,1.70
2023-04-22T16:16:50.732Z,1.58
2023-04-22T16:19:17.552Z,1.33
2023-04-22T16:21:44.284Z,1.73
2023-04-22T16:24:10.990Z,2.05
2023-04-22T16:26:37.684Z,1.92
2023-04-22T16:29:04.484Z,2.15
2023-04-22T16:31:31.170Z,2.10
2023-04-22T16:33:59.109Z,2.10
2023-04-22T16:36:26.374Z,2.83
2023-04-22T16:38:53.168Z,2.60
2023-04-22T16:41:20.628Z,2.92
2023-04-22T16:43:47.422Z,3.13
2023-04-22T16:46:14.420Z,2.40
2023-04-22T16:48:41.424Z,1.95
2023-04-22T16:51:08.157Z,2.25
2023-04-22T16:53:35.891Z,2.25
2023-04-22T16:56:02.593Z,2.80
2023-04-22T16:58:29.260Z,2.88
2023-04-22T17:00:55.967Z,3.00
2023-04-22T17:03:22.852Z,3.25
2023-04-22T17:05:49.676Z,2.88
2023-04-22T17:08:16.450Z,3.00
2023-04-22T17:10:45.215Z,2.90
2023-04-22T17:13:13.602Z,2.75
2023-04-22T17:15:41.132Z,2.65
2023-04-22T17:18:08.093Z,2.10
2023-04-22T17:20:36.282Z,1.95
2023-04-22T17:23:03.820Z,1.75
2023-04-22T17:25:31.155Z,2.13
2023-04-22T17:27:57.962Z,1.60
2023-04-22T17:30:24.678Z,1.98
2023-04-22T17:32:51.611Z,2.08
2023-04-22T17:35:18.499Z,1.77
2023-04-22T17:37:45.252Z,1.85
2023-04-22T17:40:12.047Z,2.22
2023-04-22T17:42:45.929Z,2.50
2023-04-22T17:45:13.626Z,1.70
2023-04-22T17:47:40.422Z,1.88
2023-04-22T17:50:08.999Z,1.80
2023-04-22T17:52:36.005Z,2.00
2023-04-22T17:55:03.192Z,2.30
2023-04-22T17:57:31.120Z,1.90
2023-04-22T17:59:57.891Z,2.08
2023-04-22T18:02:25.420Z,2.38
2023-04-22T18:04:52.334Z,2.20
2023-04-22T18:07:19.152Z,2.25
2023-04-22T18:09:46.069Z,2.70
2023-04-22T18:12:12.927Z,2.70
2023-04-22T18:14:42.490Z,3.95
2023-04-22T18:17:09.225Z,3.83
2023-04-22T18:19:36.016Z,3.63
2023-04-22T18:22:02.762Z,6.00
2023-04-22T18:24:29.600Z,5.25
2023-04-22T18:26:56.444Z,6.63
2023-04-22T18:29:23.155Z,4.68
2023-04-22T18:31:50.057Z,4.00
2023-04-22T18:34:16.996Z,4.80
2023-04-22T18:36:43.967Z,5.18
2023-04-22T18:39:10.806Z,4.82
2023-04-22T18:41:40.322Z,4.78
2023-04-22T18:44:07.165Z,6.05
2023-04-22T18:46:33.886Z,6.57
2023-04-22T18:49:01.333Z,5.30
2023-04-22T18:51:29.796Z,4.90
2023-04-22T18:53:57.028Z,4.50
2023-04-22T18:56:23.943Z,4.22
2023-04-22T18:58:51.338Z,4.15
2023-04-22T19:01:18.273Z,4.25
2023-04-22T19:03:46.452Z,3.17
2023-04-22T19:06:13.238Z,2.88
2023-04-22T19:08:40.100Z,2.90
2023-04-22T19:11:07.071Z,2.72
2023-04-22T19:13:33.811Z,3.10
2023-04-22T19:16:00.882Z,3.17
2023-04-22T19:18:27.734Z,3.47
2023-04-22T19:20:54.482Z,3.97
2023-04-22T19:23:21.645Z,4.70
2023-04-22T19:25:48.431Z,7.97
2023-04-22T19:28:15.420Z,8.00
2023-04-22T19:30:42.922Z,5.10
2023-04-22T19:33:09.705Z,3.67
2023-04-22T19:35:36.469Z,3.45
2023-04-22T19:38:03.308Z,3.00
2023-04-22T19:40:30.106Z,3.40
2023-04-22T19:42:59.043Z,3.80
2023-04-22T19:45:26.780Z,3.17
2023-04-22T19:47:53.851Z,3.88
2023-04-22T19:50:20.828Z,3.47
2023-04-22T19:52:49.983Z,3.97
2023-04-22T19:55:17.866Z,3.83
2023-04-22T19:57:44.740Z,3.60
2023-04-22T20:00:12.147Z,3.72
2023-04-22T20:02:39.277Z,4.72
2023-04-22T20:05:07.285Z,6.10
2023-04-22T20:07:34.787Z,5.40
2023-04-22T20:10:04.663Z,5.28
2023-04-22T20:12:31.818Z,5.20
2023-04-22T20:14:59.866Z,4.38
2023-04-22T20:17:27.576Z,3.70
2023-04-22T20:19:55.159Z,3.50
2023-04-22T20:22:27.147Z,4.45
2023-04-22T20:25:02.181Z,6.05
2023-04-22T20:27:32.878Z,6.10
2023-04-22T20:30:03.923Z,5.93
2023-04-22T20:32:31.566Z,6.82
2023-04-22T20:34:59.109Z,6.82
2023-04-22T20:37:32.239Z,6.93
2023-04-22T20:40:04.309Z,6.63
2023-04-22T20:42:33.133Z,6.22
2023-04-22T20:45:02.056Z,5.60
2023-04-22T20:47:28.961Z,5.15
2023-04-22T20:49:55.714Z,4.30
2023-04-22T20:52:22.572Z,4.13
2023-04-22T20:54:55.180Z,4.68
2023-04-22T20:57:21.924Z,4.68
2023-04-22T20:59:48.633Z,5.05
2023-04-22T21:02:17.377Z,5.53
2023-04-22T21:04:44.311Z,5.68
2023-04-22T21:07:14.333Z,8.10
2023-04-22T21:09:41.656Z,7.15
2023-04-22T21:12:10.750Z,5.78
2023-04-22T21:14:43.509Z,5.13
2023-04-22T21:17:23.891Z,4.30
2023-04-22T21:19:51.062Z,5.00
2023-04-22T21:22:21.545Z,4.65
2023-04-22T21:24:49.867Z,4.38
2023-04-22T21:27:18.274Z,4.70
2023-04-22T21:29:46.615Z,4.53
2023-04-22T21:32:14.118Z,4.55
2023-04-22T21:34:41.324Z,4.85
2023-04-22T21:37:08.693Z,4.63
2023-04-22T21:39:35.830Z,5.03
2023-04-22T21:42:03.066Z,4.97
2023-04-22T21:44:29.797Z,5.10
2023-04-22T21:46:56.491Z,4.88
2023-04-22T21:49:23.242Z,4.47
2023-04-22T21:51:50.204Z,4.32
2023-04-22T21:54:17.207Z,4.85
2023-04-22T21:56:44.100Z,4.93
2023-04-22T21:59:11.169Z,4.30
2023-04-22T22:01:37.963Z,4.30
2023-04-22T22:04:05.414Z,5.75
2023-04-22T22:06:33.299Z,4.85
2023-04-22T22:09:00.138Z,5.82
2023-04-22T22:11:30.801Z,5.00
2023-04-22T22:13:58.753Z,6.90
2023-04-22T22:16:25.870Z,6.55
2023-04-22T22:18:52.818Z,5.80
2023-04-22T22:21:19.658Z,4.40
2023-04-22T22:23:46.305Z,4.28
2023-04-22T22:26:15.904Z,4.35
2023-04-22T22:28:43.482Z,3.97
2023-04-22T22:31:10.240Z,3.40
2023-04-22T22:33:37.354Z,3.60
2023-04-22T22:36:04.089Z,3.22
2023-04-22T22:38:30.806Z,3.63
2023-04-22T22:40:57.549Z,3.45
2023-04-22T22:43:24.265Z,3.50
2023-04-22T22:45:51.045Z,3.50
2023-04-22T22:48:17.923Z,4.65
2023-04-22T22:50:46.506Z,5.43
2023-04-22T22:53:13.458Z,5.20
2023-04-22T22:55:40.554Z,4.20
2023-04-22T22:58:07.346Z,3.83
2023-04-22T23:00:34.147Z,5.25
2023-04-22T23:03:01.239Z,5.38
2023-04-22T23:05:28.280Z,5.00
2023-04-22T23:07:55.042Z,4.85
2023-04-22T23:10:21.731Z,5.00
2023-04-22T23:12:48.442Z,5.22
2023-04-22T23:15:15.305Z,5.43
2023-04-22T23:17:42.161Z,4.63
2023-04-22T23:20:12.206Z,3.92
2023-04-22T23:22:40.641Z,4.57
2023-04-22T23:25:08.620Z,4.30
2023-04-22T23:27:36.182Z,4.20
2023-04-22T23:30:04.645Z,4.63
2023-04-22T23:32:33.143Z,4.38
2023-04-22T23:35:02.781Z,4.55
2023-04-22T23:37:30.115Z,4.57
2023-04-22T23:39:56.894Z,4.32
2023-04-22T23:42:23.680Z,4.13
2023-04-22T23:44:50.467Z,4.32
2023-04-22T23:47:17.430Z,3.90
2023-04-22T23:49:44.323Z,4.40
2023-04-22T23:52:12.953Z,3.97
2023-04-22T23:54:41.422Z,4.90
2023-04-22T23:57:08.793Z,4.10
2023-04-22T23:59:35.970Z,4.40
